sensor_id;sensor_type;location;lat;lon;timestamp;P1;durP1;ratioP1;P2;durP2;ratioP2
26860;SDS011;37676;46.956;7.430;2022-07-23T00:00:45;5.28;;;3.20;;
26860;SDS011;37676;46.956;7.430;2022-07-23T00:03:12;4.32;;;3.00;;
26860;SDS011;37676;46.956;7.430;2022-07-23T00:05:37;4.93;;;2.60;;
26860;SDS011;37676;46.956;7.430;2022-07-23T00:08:03;4.07;;;2.60;;
26860;SDS011;37676;46.956;7.430;2022-07-23T00:10:29;3.83;;;2.17;;
26860;SDS011;37676;46.956;7.430;2022-07-23T00:12:54;3.90;;;2.60;;
26860;SDS011;37676;46.956;7.430;2022-07-23T00:15:19;3.93;;;2.40;;
26860;SDS011;37676;46.956;7.430;2022-07-23T00:17:45;4.85;;;3.30;;
26860;SDS011;37676;46.956;7.430;2022-07-23T00:20:10;4.00;;;2.75;;
26860;SDS011;37676;46.956;7.430;2022-07-23T00:22:36;4.47;;;2.83;;
26860;SDS011;37676;46.956;7.430;2022-07-23T00:25:01;3.72;;;2.38;;
26860;SDS011;37676;46.956;7.430;2022-07-23T00:27:26;4.22;;;2.80;;
26860;SDS011;37676;46.956;7.430;2022-07-23T00:29:52;3.72;;;2.53;;
26860;SDS011;37676;46.956;7.430;2022-07-23T00:32:17;4.45;;;2.58;;
26860;SDS011;37676;46.956;7.430;2022-07-23T00:34:42;5.00;;;3.33;;
26860;SDS011;37676;46.956;7.430;2022-07-23T00:37:08;3.92;;;2.67;;
26860;SDS011;37676;46.956;7.430;2022-07-23T00:39:33;3.70;;;2.45;;
26860;SDS011;37676;46.956;7.430;2022-07-23T00:41:58;4.53;;;2.83;;
26860;SDS011;37676;46.956;7.430;2022-07-23T00:44:24;4.18;;;1.95;;
26860;SDS011;37676;46.956;7.430;2022-07-23T00:46:56;3.50;;;2.30;;
26860;SDS011;37676;46.956;7.430;2022-07-23T00:49:23;4.88;;;3.03;;
26860;SDS011;37676;46.956;7.430;2022-07-23T00:51:51;4.75;;;2.88;;
26860;SDS011;37676;46.956;7.430;2022-07-23T00:54:17;4.18;;;2.50;;
26860;SDS011;37676;46.956;7.430;2022-07-23T00:56:44;3.30;;;2.20;;
26860;SDS011;37676;46.956;7.430;2022-07-23T00:59:10;4.20;;;2.67;;
26860;SDS011;37676;46.956;7.430;2022-07-23T01:01:35;6.25;;;2.95;;
26860;SDS011;37676;46.956;7.430;2022-07-23T01:04:01;4.53;;;3.28;;
26860;SDS011;37676;46.956;7.430;2022-07-23T01:06:26;4.40;;;2.70;;
26860;SDS011;37676;46.956;7.430;2022-07-23T01:08:53;3.60;;;2.30;;
26860;SDS011;37676;46.956;7.430;2022-07-23T01:11:19;4.82;;;2.90;;
26860;SDS011;37676;46.956;7.430;2022-07-23T01:13:45;4.38;;;2.80;;
26860;SDS011;37676;46.956;7.430;2022-07-23T01:16:10;4.55;;;3.10;;
26860;SDS011;37676;46.956;7.430;2022-07-23T01:18:35;4.68;;;3.25;;
26860;SDS011;37676;46.956;7.430;2022-07-23T01:21:01;5.00;;;3.38;;
26860;SDS011;37676;46.956;7.430;2022-07-23T01:23:27;5.03;;;3.70;;
26860;SDS011;37676;46.956;7.430;2022-07-23T01:25:53;4.78;;;3.30;;
26860;SDS011;37676;46.956;7.430;2022-07-23T01:28:18;6.30;;;3.40;;
26860;SDS011;37676;46.956;7.430;2022-07-23T01:30:44;3.85;;;2.65;;
26860;SDS011;37676;46.956;7.430;2022-07-23T01:33:10;4.75;;;3.38;;
26860;SDS011;37676;46.956;7.430;2022-07-23T01:35:35;4.78;;;3.10;;
26860;SDS011;37676;46.956;7.430;2022-07-23T01:38:01;4.75;;;3.50;;
26860;SDS011;37676;46.956;7.430;2022-07-23T01:40:26;5.45;;;4.05;;
26860;SDS011;37676;46.956;7.430;2022-07-23T01:42:52;6.00;;;3.30;;
26860;SDS011;37676;46.956;7.430;2022-07-23T01:45:17;6.05;;;3.78;;
26860;SDS011;37676;46.956;7.430;2022-07-23T01:47:43;4.47;;;3.25;;
26860;SDS011;37676;46.956;7.430;2022-07-23T01:50:08;3.83;;;2.45;;
26860;SDS011;37676;46.956;7.430;2022-07-23T01:52:34;4.65;;;3.13;;
26860;SDS011;37676;46.956;7.430;2022-07-23T01:54:59;5.90;;;4.53;;
26860;SDS011;37676;46.956;7.430;2022-07-23T01:57:24;8.45;;;6.15;;
26860;SDS011;37676;46.956;7.430;2022-07-23T01:59:50;6.63;;;5.10;;
26860;SDS011;37676;46.956;7.430;2022-07-23T02:02:15;6.60;;;4.78;;
26860;SDS011;37676;46.956;7.430;2022-07-23T02:04:40;5.63;;;3.72;;
26860;SDS011;37676;46.956;7.430;2022-07-23T02:07:06;5.03;;;2.65;;
26860;SDS011;37676;46.956;7.430;2022-07-23T02:09:31;4.82;;;2.95;;
26860;SDS011;37676;46.956;7.430;2022-07-23T02:11:57;4.75;;;2.78;;
26860;SDS011;37676;46.956;7.430;2022-07-23T02:14:23;3.88;;;2.50;;
26860;SDS011;37676;46.956;7.430;2022-07-23T02:16:49;4.55;;;2.67;;
26860;SDS011;37676;46.956;7.430;2022-07-23T02:19:14;3.17;;;1.92;;
26860;SDS011;37676;46.956;7.430;2022-07-23T02:21:39;3.25;;;1.52;;
26860;SDS011;37676;46.956;7.430;2022-07-23T02:24:05;3.33;;;2.05;;
26860;SDS011;37676;46.956;7.430;2022-07-23T02:26:30;3.25;;;1.75;;
26860;SDS011;37676;46.956;7.430;2022-07-23T02:29:00;4.60;;;2.00;;
26860;SDS011;37676;46.956;7.430;2022-07-23T02:31:26;2.97;;;1.85;;
26860;SDS011;37676;46.956;7.430;2022-07-23T02:33:53;3.83;;;2.38;;
26860;SDS011;37676;46.956;7.430;2022-07-23T02:36:18;5.13;;;3.20;;
26860;SDS011;37676;46.956;7.430;2022-07-23T02:38:43;5.57;;;3.67;;
26860;SDS011;37676;46.956;7.430;2022-07-23T02:41:09;4.90;;;3.45;;
26860;SDS011;37676;46.956;7.430;2022-07-23T02:43:34;4.38;;;2.97;;
26860;SDS011;37676;46.956;7.430;2022-07-23T02:45:59;4.75;;;2.90;;
26860;SDS011;37676;46.956;7.430;2022-07-23T02:48:25;6.38;;;3.33;;
26860;SDS011;37676;46.956;7.430;2022-07-23T02:50:51;3.80;;;2.70;;
26860;SDS011;37676;46.956;7.430;2022-07-23T02:53:17;4.45;;;3.17;;
26860;SDS011;37676;46.956;7.430;2022-07-23T02:55:42;5.28;;;4.10;;
26860;SDS011;37676;46.956;7.430;2022-07-23T02:58:08;4.93;;;3.38;;
26860;SDS011;37676;46.956;7.430;2022-07-23T03:00:33;5.13;;;3.17;;
26860;SDS011;37676;46.956;7.430;2022-07-23T03:02:58;5.00;;;3.50;;
26860;SDS011;37676;46.956;7.430;2022-07-23T03:05:24;5.07;;;3.35;;
26860;SDS011;37676;46.956;7.430;2022-07-23T03:07:49;4.35;;;2.60;;
26860;SDS011;37676;46.956;7.430;2022-07-23T03:10:14;5.40;;;2.53;;
26860;SDS011;37676;46.956;7.430;2022-07-23T03:12:40;3.60;;;2.42;;
26860;SDS011;37676;46.956;7.430;2022-07-23T03:15:05;3.90;;;2.40;;
26860;SDS011;37676;46.956;7.430;2022-07-23T03:17:31;3.03;;;1.80;;
26860;SDS011;37676;46.956;7.430;2022-07-23T03:19:56;7.20;;;4.60;;
26860;SDS011;37676;46.956;7.430;2022-07-23T03:22:21;5.82;;;4.13;;
26860;SDS011;37676;46.956;7.430;2022-07-23T03:24:47;5.37;;;3.80;;
26860;SDS011;37676;46.956;7.430;2022-07-23T03:27:18;4.95;;;3.38;;
26860;SDS011;37676;46.956;7.430;2022-07-23T03:29:44;6.57;;;2.80;;
26860;SDS011;37676;46.956;7.430;2022-07-23T03:32:10;4.30;;;2.45;;
26860;SDS011;37676;46.956;7.430;2022-07-23T03:34:35;4.85;;;2.90;;
26860;SDS011;37676;46.956;7.430;2022-07-23T03:37:01;2.92;;;1.98;;
26860;SDS011;37676;46.956;7.430;2022-07-23T03:39:26;3.53;;;1.90;;
26860;SDS011;37676;46.956;7.430;2022-07-23T03:41:52;2.90;;;1.83;;
26860;SDS011;37676;46.956;7.430;2022-07-23T03:44:17;3.90;;;2.40;;
26860;SDS011;37676;46.956;7.430;2022-07-23T03:46:43;2.92;;;1.83;;
26860;SDS011;37676;46.956;7.430;2022-07-23T03:49:08;4.68;;;2.70;;
26860;SDS011;37676;46.956;7.430;2022-07-23T03:51:33;4.25;;;2.80;;
26860;SDS011;37676;46.956;7.430;2022-07-23T03:53:59;4.22;;;2.80;;
26860;SDS011;37676;46.956;7.430;2022-07-23T03:56:24;5.13;;;3.05;;
26860;SDS011;37676;46.956;7.430;2022-07-23T03:58:50;4.60;;;2.85;;
26860;SDS011;37676;46.956;7.430;2022-07-23T04:01:16;5.20;;;3.05;;
26860;SDS011;37676;46.956;7.430;2022-07-23T04:03:41;4.82;;;2.90;;
26860;SDS011;37676;46.956;7.430;2022-07-23T04:06:06;5.18;;;3.35;;
26860;SDS011;37676;46.956;7.430;2022-07-23T04:08:32;3.88;;;2.65;;
26860;SDS011;37676;46.956;7.430;2022-07-23T04:10:57;3.85;;;2.67;;
26860;SDS011;37676;46.956;7.430;2022-07-23T04:13:22;4.93;;;3.40;;
26860;SDS011;37676;46.956;7.430;2022-07-23T04:15:48;5.80;;;3.90;;
26860;SDS011;37676;46.956;7.430;2022-07-23T04:18:13;5.32;;;3.90;;
26860;SDS011;37676;46.956;7.430;2022-07-23T04:20:39;5.47;;;3.97;;
26860;SDS011;37676;46.956;7.430;2022-07-23T04:23:04;5.05;;;3.50;;
26860;SDS011;37676;46.956;7.430;2022-07-23T04:25:29;5.43;;;3.00;;
26860;SDS011;37676;46.956;7.430;2022-07-23T04:27:55;2.80;;;1.90;;
26860;SDS011;37676;46.956;7.430;2022-07-23T04:30:20;3.95;;;2.40;;
26860;SDS011;37676;46.956;7.430;2022-07-23T04:32:45;3.50;;;2.20;;
26860;SDS011;37676;46.956;7.430;2022-07-23T04:35:11;4.10;;;2.50;;
26860;SDS011;37676;46.956;7.430;2022-07-23T04:37:36;3.28;;;1.95;;
26860;SDS011;37676;46.956;7.430;2022-07-23T04:40:02;3.75;;;1.83;;
26860;SDS011;37676;46.956;7.430;2022-07-23T04:42:27;3.60;;;2.00;;
26860;SDS011;37676;46.956;7.430;2022-07-23T04:44:52;3.50;;;1.75;;
26860;SDS011;37676;46.956;7.430;2022-07-23T04:47:18;3.42;;;2.22;;
26860;SDS011;37676;46.956;7.430;2022-07-23T04:49:43;3.70;;;2.20;;
26860;SDS011;37676;46.956;7.430;2022-07-23T04:52:08;3.67;;;2.30;;
26860;SDS011;37676;46.956;7.430;2022-07-23T04:54:34;4.50;;;3.20;;
26860;SDS011;37676;46.956;7.430;2022-07-23T04:56:59;5.32;;;2.97;;
26860;SDS011;37676;46.956;7.430;2022-07-23T04:59:24;3.30;;;2.10;;
26860;SDS011;37676;46.956;7.430;2022-07-23T05:01:50;4.28;;;2.60;;
26860;SDS011;37676;46.956;7.430;2022-07-23T05:04:15;4.55;;;2.90;;
26860;SDS011;37676;46.956;7.430;2022-07-23T05:06:40;4.03;;;2.60;;
26860;SDS011;37676;46.956;7.430;2022-07-23T05:09:06;3.90;;;2.75;;
26860;SDS011;37676;46.956;7.430;2022-07-23T05:11:31;5.18;;;3.67;;
26860;SDS011;37676;46.956;7.430;2022-07-23T05:13:56;5.38;;;3.42;;
26860;SDS011;37676;46.956;7.430;2022-07-23T05:16:22;5.07;;;3.63;;
26860;SDS011;37676;46.956;7.430;2022-07-23T05:18:47;6.80;;;4.60;;
26860;SDS011;37676;46.956;7.430;2022-07-23T05:21:12;4.13;;;3.03;;
26860;SDS011;37676;46.956;7.430;2022-07-23T05:23:37;3.97;;;2.28;;
26860;SDS011;37676;46.956;7.430;2022-07-23T05:26:03;4.13;;;2.57;;
26860;SDS011;37676;46.956;7.430;2022-07-23T05:28:28;3.10;;;1.98;;
26860;SDS011;37676;46.956;7.430;2022-07-23T05:30:53;3.20;;;1.88;;
26860;SDS011;37676;46.956;7.430;2022-07-23T05:33:19;4.97;;;2.60;;
26860;SDS011;37676;46.956;7.430;2022-07-23T05:35:45;4.00;;;2.53;;
26860;SDS011;37676;46.956;7.430;2022-07-23T05:38:10;2.80;;;1.73;;
26860;SDS011;37676;46.956;7.430;2022-07-23T05:40:35;2.92;;;1.70;;
26860;SDS011;37676;46.956;7.430;2022-07-23T05:43:00;3.17;;;2.05;;
26860;SDS011;37676;46.956;7.430;2022-07-23T05:45:26;3.90;;;2.75;;
26860;SDS011;37676;46.956;7.430;2022-07-23T05:47:51;4.72;;;2.95;;
26860;SDS011;37676;46.956;7.430;2022-07-23T05:50:17;3.65;;;2.50;;
26860;SDS011;37676;46.956;7.430;2022-07-23T05:52:42;5.25;;;3.20;;
26860;SDS011;37676;46.956;7.430;2022-07-23T05:55:08;4.45;;;2.70;;
26860;SDS011;37676;46.956;7.430;2022-07-23T05:57:35;3.60;;;2.10;;
26860;SDS011;37676;46.956;7.430;2022-07-23T06:00:00;4.43;;;3.05;;
26860;SDS011;37676;46.956;7.430;2022-07-23T06:02:26;7.13;;;4.88;;
26860;SDS011;37676;46.956;7.430;2022-07-23T06:04:52;6.95;;;5.03;;
26860;SDS011;37676;46.956;7.430;2022-07-23T06:07:17;5.93;;;3.90;;
26860;SDS011;37676;46.956;7.430;2022-07-23T06:09:42;4.53;;;3.67;;
26860;SDS011;37676;46.956;7.430;2022-07-23T06:12:08;4.07;;;2.75;;
26860;SDS011;37676;46.956;7.430;2022-07-23T06:14:33;4.25;;;2.63;;
26860;SDS011;37676;46.956;7.430;2022-07-23T06:16:58;4.57;;;2.60;;
26860;SDS011;37676;46.956;7.430;2022-07-23T06:19:24;3.65;;;2.50;;
26860;SDS011;37676;46.956;7.430;2022-07-23T06:21:50;2.75;;;1.63;;
26860;SDS011;37676;46.956;7.430;2022-07-23T06:24:15;3.42;;;1.52;;
26860;SDS011;37676;46.956;7.430;2022-07-23T06:26:40;3.93;;;2.27;;
26860;SDS011;37676;46.956;7.430;2022-07-23T06:29:06;2.70;;;1.63;;
26860;SDS011;37676;46.956;7.430;2022-07-23T06:31:31;4.13;;;2.38;;
26860;SDS011;37676;46.956;7.430;2022-07-23T06:33:56;3.88;;;2.30;;
26860;SDS011;37676;46.956;7.430;2022-07-23T06:36:22;2.60;;;1.60;;
26860;SDS011;37676;46.956;7.430;2022-07-23T06:38:47;4.57;;;2.67;;
26860;SDS011;37676;46.956;7.430;2022-07-23T06:41:12;2.50;;;1.80;;
26860;SDS011;37676;46.956;7.430;2022-07-23T06:43:38;2.75;;;1.60;;
26860;SDS011;37676;46.956;7.430;2022-07-23T06:46:03;2.65;;;1.48;;
26860;SDS011;37676;46.956;7.430;2022-07-23T06:48:29;3.60;;;2.10;;
26860;SDS011;37676;46.956;7.430;2022-07-23T06:50:54;4.18;;;2.45;;
26860;SDS011;37676;46.956;7.430;2022-07-23T06:53:20;4.65;;;3.05;;
26860;SDS011;37676;46.956;7.430;2022-07-23T06:55:45;4.35;;;2.50;;
26860;SDS011;37676;46.956;7.430;2022-07-23T06:58:11;3.47;;;1.98;;
26860;SDS011;37676;46.956;7.430;2022-07-23T07:00:36;2.88;;;1.60;;
26860;SDS011;37676;46.956;7.430;2022-07-23T07:03:02;2.55;;;1.60;;
26860;SDS011;37676;46.956;7.430;2022-07-23T07:05:27;2.80;;;1.83;;
26860;SDS011;37676;46.956;7.430;2022-07-23T07:07:54;3.92;;;2.70;;
26860;SDS011;37676;46.956;7.430;2022-07-23T07:10:19;3.53;;;2.05;;
26860;SDS011;37676;46.956;7.430;2022-07-23T07:12:45;3.47;;;2.05;;
26860;SDS011;37676;46.956;7.430;2022-07-23T07:15:10;4.38;;;2.30;;
26860;SDS011;37676;46.956;7.430;2022-07-23T07:17:36;3.50;;;2.28;;
26860;SDS011;37676;46.956;7.430;2022-07-23T07:20:02;3.88;;;2.50;;
26860;SDS011;37676;46.956;7.430;2022-07-23T07:22:27;3.60;;;2.25;;
26860;SDS011;37676;46.956;7.430;2022-07-23T07:24:53;4.13;;;2.53;;
26860;SDS011;37676;46.956;7.430;2022-07-23T07:27:18;3.58;;;2.25;;
26860;SDS011;37676;46.956;7.430;2022-07-23T07:29:43;4.32;;;2.28;;
26860;SDS011;37676;46.956;7.430;2022-07-23T07:32:09;3.08;;;1.80;;
26860;SDS011;37676;46.956;7.430;2022-07-23T07:34:34;3.13;;;1.90;;
26860;SDS011;37676;46.956;7.430;2022-07-23T07:36:59;3.20;;;1.90;;
26860;SDS011;37676;46.956;7.430;2022-07-23T07:39:24;3.50;;;1.67;;
26860;SDS011;37676;46.956;7.430;2022-07-23T07:41:50;3.00;;;1.83;;
26860;SDS011;37676;46.956;7.430;2022-07-23T07:44:15;3.80;;;1.73;;
26860;SDS011;37676;46.956;7.430;2022-07-23T07:46:41;2.80;;;1.77;;
26860;SDS011;37676;46.956;7.430;2022-07-23T07:49:06;3.60;;;2.25;;
26860;SDS011;37676;46.956;7.430;2022-07-23T07:51:32;4.18;;;2.50;;
26860;SDS011;37676;46.956;7.430;2022-07-23T07:53:57;4.80;;;2.55;;
26860;SDS011;37676;46.956;7.430;2022-07-23T07:56:23;3.72;;;2.45;;
26860;SDS011;37676;46.956;7.430;2022-07-23T07:58:48;4.65;;;3.63;;
26860;SDS011;37676;46.956;7.430;2022-07-23T08:01:13;4.97;;;3.15;;
26860;SDS011;37676;46.956;7.430;2022-07-23T08:03:39;3.25;;;2.00;;
26860;SDS011;37676;46.956;7.430;2022-07-23T08:06:04;4.93;;;3.30;;
26860;SDS011;37676;46.956;7.430;2022-07-23T08:08:29;3.45;;;2.17;;
26860;SDS011;37676;46.956;7.430;2022-07-23T08:10:55;3.90;;;2.53;;
26860;SDS011;37676;46.956;7.430;2022-07-23T08:13:20;4.25;;;2.72;;
26860;SDS011;37676;46.956;7.430;2022-07-23T08:15:45;2.83;;;1.88;;
26860;SDS011;37676;46.956;7.430;2022-07-23T08:18:11;3.53;;;2.20;;
26860;SDS011;37676;46.956;7.430;2022-07-23T08:20:36;4.25;;;2.60;;
26860;SDS011;37676;46.956;7.430;2022-07-23T08:23:05;4.43;;;2.95;;
26860;SDS011;37676;46.956;7.430;2022-07-23T08:25:35;3.53;;;2.00;;
26860;SDS011;37676;46.956;7.430;2022-07-23T08:28:03;2.97;;;1.83;;
26860;SDS011;37676;46.956;7.430;2022-07-23T08:30:30;4.18;;;2.28;;
26860;SDS011;37676;46.956;7.430;2022-07-23T08:35:24;4.47;;;2.47;;
26860;SDS011;37676;46.956;7.430;2022-07-23T08:37:54;3.88;;;2.35;;
26860;SDS011;37676;46.956;7.430;2022-07-23T08:40:20;3.92;;;2.30;;
26860;SDS011;37676;46.956;7.430;2022-07-23T08:42:47;4.75;;;3.20;;
26860;SDS011;37676;46.956;7.430;2022-07-23T08:45:14;4.72;;;3.58;;
26860;SDS011;37676;46.956;7.430;2022-07-23T08:47:42;5.07;;;3.75;;
26860;SDS011;37676;46.956;7.430;2022-07-23T08:50:08;3.70;;;2.50;;
26860;SDS011;37676;46.956;7.430;2022-07-23T08:52:36;5.28;;;3.53;;
26860;SDS011;37676;46.956;7.430;2022-07-23T08:55:02;5.22;;;3.75;;
26860;SDS011;37676;46.956;7.430;2022-07-23T08:57:28;8.65;;;7.13;;
26860;SDS011;37676;46.956;7.430;2022-07-23T08:59:53;6.90;;;4.30;;
26860;SDS011;37676;46.956;7.430;2022-07-23T09:02:19;3.72;;;2.58;;
26860;SDS011;37676;46.956;7.430;2022-07-23T09:04:44;5.00;;;3.38;;
26860;SDS011;37676;46.956;7.430;2022-07-23T09:07:09;4.70;;;3.30;;
26860;SDS011;37676;46.956;7.430;2022-07-23T09:09:35;4.70;;;3.30;;
26860;SDS011;37676;46.956;7.430;2022-07-23T09:12:04;3.80;;;2.70;;
26860;SDS011;37676;46.956;7.430;2022-07-23T09:14:44;3.22;;;1.90;;
26860;SDS011;37676;46.956;7.430;2022-07-23T09:17:14;3.08;;;1.92;;
26860;SDS011;37676;46.956;7.430;2022-07-23T09:19:42;3.15;;;2.15;;
26860;SDS011;37676;46.956;7.430;2022-07-23T09:22:18;4.80;;;2.97;;
26860;SDS011;37676;46.956;7.430;2022-07-23T09:30:24;3.33;;;2.13;;
26860;SDS011;37676;46.956;7.430;2022-07-23T09:35:51;3.50;;;2.42;;
26860;SDS011;37676;46.956;7.430;2022-07-23T09:38:19;6.03;;;4.00;;
26860;SDS011;37676;46.956;7.430;2022-07-23T09:40:46;4.88;;;2.97;;
26860;SDS011;37676;46.956;7.430;2022-07-23T09:43:13;3.45;;;2.40;;
26860;SDS011;37676;46.956;7.430;2022-07-23T09:45:53;4.13;;;2.65;;
26860;SDS011;37676;46.956;7.430;2022-07-23T09:48:18;3.85;;;2.70;;
26860;SDS011;37676;46.956;7.430;2022-07-23T09:50:44;3.03;;;1.88;;
26860;SDS011;37676;46.956;7.430;2022-07-23T09:53:10;5.10;;;2.60;;
26860;SDS011;37676;46.956;7.430;2022-07-23T09:55:49;5.20;;;2.92;;
26860;SDS011;37676;46.956;7.430;2022-07-23T09:58:18;4.25;;;2.92;;
26860;SDS011;37676;46.956;7.430;2022-07-23T10:00:46;3.70;;;2.50;;
26860;SDS011;37676;46.956;7.430;2022-07-23T10:03:15;3.97;;;2.92;;
26860;SDS011;37676;46.956;7.430;2022-07-23T10:05:42;3.47;;;2.20;;
26860;SDS011;37676;46.956;7.430;2022-07-23T10:08:10;4.38;;;3.58;;
26860;SDS011;37676;46.956;7.430;2022-07-23T10:10:38;5.32;;;3.80;;
26860;SDS011;37676;46.956;7.430;2022-07-23T10:13:04;4.47;;;3.10;;
26860;SDS011;37676;46.956;7.430;2022-07-23T10:16:08;3.53;;;2.47;;
26860;SDS011;37676;46.956;7.430;2022-07-23T10:18:34;5.35;;;3.83;;
26860;SDS011;37676;46.956;7.430;2022-07-23T10:20:59;4.85;;;3.67;;
26860;SDS011;37676;46.956;7.430;2022-07-23T10:26:23;5.13;;;3.67;;
26860;SDS011;37676;46.956;7.430;2022-07-23T10:29:06;4.43;;;3.58;;
26860;SDS011;37676;46.956;7.430;2022-07-23T10:32:14;3.63;;;2.63;;
26860;SDS011;37676;46.956;7.430;2022-07-23T10:34:50;4.97;;;3.45;;
26860;SDS011;37676;46.956;7.430;2022-07-23T10:37:35;4.50;;;3.22;;
26860;SDS011;37676;46.956;7.430;2022-07-23T10:42:44;4.40;;;3.25;;
26860;SDS011;37676;46.956;7.430;2022-07-23T10:45:21;3.95;;;2.92;;
26860;SDS011;37676;46.956;7.430;2022-07-23T10:50:42;3.90;;;2.70;;
26860;SDS011;37676;46.956;7.430;2022-07-23T10:53:09;4.22;;;3.20;;
26860;SDS011;37676;46.956;7.430;2022-07-23T10:55:48;4.80;;;3.85;;
26860;SDS011;37676;46.956;7.430;2022-07-23T10:58:19;5.90;;;3.20;;
26860;SDS011;37676;46.956;7.430;2022-07-23T11:03:59;3.72;;;2.50;;
26860;SDS011;37676;46.956;7.430;2022-07-23T11:06:47;4.25;;;3.03;;
26860;SDS011;37676;46.956;7.430;2022-07-23T11:17:34;5.32;;;3.97;;
26860;SDS011;37676;46.956;7.430;2022-07-23T11:25:05;4.90;;;3.10;;
26860;SDS011;37676;46.956;7.430;2022-07-23T11:27:41;3.63;;;2.50;;
26860;SDS011;37676;46.956;7.430;2022-07-23T11:30:08;3.22;;;2.17;;
26860;SDS011;37676;46.956;7.430;2022-07-23T11:32:36;4.22;;;2.83;;
26860;SDS011;37676;46.956;7.430;2022-07-23T11:35:25;4.32;;;3.33;;
26860;SDS011;37676;46.956;7.430;2022-07-23T11:37:53;3.65;;;2.45;;
26860;SDS011;37676;46.956;7.430;2022-07-23T11:40:27;4.95;;;3.50;;
26860;SDS011;37676;46.956;7.430;2022-07-23T11:45:33;4.30;;;3.30;;
26860;SDS011;37676;46.956;7.430;2022-07-23T11:48:03;3.70;;;2.40;;
26860;SDS011;37676;46.956;7.430;2022-07-23T11:50:30;4.63;;;3.53;;
26860;SDS011;37676;46.956;7.430;2022-07-23T11:52:56;4.40;;;2.80;;
26860;SDS011;37676;46.956;7.430;2022-07-23T11:55:22;4.55;;;3.30;;
26860;SDS011;37676;46.956;7.430;2022-07-23T11:57:47;4.40;;;3.38;;
26860;SDS011;37676;46.956;7.430;2022-07-23T12:00:17;4.78;;;3.70;;
26860;SDS011;37676;46.956;7.430;2022-07-23T12:02:45;4.22;;;3.08;;
26860;SDS011;37676;46.956;7.430;2022-07-23T12:05:17;3.92;;;2.25;;
26860;SDS011;37676;46.956;7.430;2022-07-23T12:07:44;3.70;;;2.35;;
26860;SDS011;37676;46.956;7.430;2022-07-23T12:10:18;4.75;;;3.28;;
26860;SDS011;37676;46.956;7.430;2022-07-23T12:12:56;5.75;;;4.10;;
26860;SDS011;37676;46.956;7.430;2022-07-23T12:15:24;5.15;;;4.30;;
26860;SDS011;37676;46.956;7.430;2022-07-23T12:17:58;7.45;;;4.70;;
26860;SDS011;37676;46.956;7.430;2022-07-23T12:20:26;6.15;;;4.32;;
26860;SDS011;37676;46.956;7.430;2022-07-23T12:23:00;4.95;;;3.28;;
26860;SDS011;37676;46.956;7.430;2022-07-23T12:25:28;4.97;;;3.38;;
26860;SDS011;37676;46.956;7.430;2022-07-23T12:30:28;3.45;;;2.63;;
26860;SDS011;37676;46.956;7.430;2022-07-23T12:32:57;4.07;;;2.83;;
26860;SDS011;37676;46.956;7.430;2022-07-23T12:35:23;4.43;;;2.97;;
26860;SDS011;37676;46.956;7.430;2022-07-23T12:37:59;4.63;;;3.17;;
26860;SDS011;37676;46.956;7.430;2022-07-23T12:40:33;4.28;;;3.30;;
26860;SDS011;37676;46.956;7.430;2022-07-23T12:43:05;3.72;;;2.72;;
26860;SDS011;37676;46.956;7.430;2022-07-23T12:46:34;4.10;;;2.50;;
26860;SDS011;37676;46.956;7.430;2022-07-23T12:51:15;4.27;;;3.33;;
26860;SDS011;37676;46.956;7.430;2022-07-23T12:53:43;5.00;;;3.67;;
26860;SDS011;37676;46.956;7.430;2022-07-23T12:56:15;3.97;;;2.67;;
26860;SDS011;37676;46.956;7.430;2022-07-23T13:06:33;4.72;;;3.20;;
26860;SDS011;37676;46.956;7.430;2022-07-23T13:09:00;4.20;;;2.88;;
26860;SDS011;37676;46.956;7.430;2022-07-23T13:11:26;6.47;;;3.40;;
26860;SDS011;37676;46.956;7.430;2022-07-23T13:13:51;5.70;;;4.63;;
26860;SDS011;37676;46.956;7.430;2022-07-23T13:16:17;5.03;;;4.07;;
26860;SDS011;37676;46.956;7.430;2022-07-23T13:18:42;5.68;;;3.88;;
26860;SDS011;37676;46.956;7.430;2022-07-23T13:21:08;4.00;;;3.00;;
26860;SDS011;37676;46.956;7.430;2022-07-23T13:23:33;4.32;;;2.90;;
26860;SDS011;37676;46.956;7.430;2022-07-23T13:25:59;4.03;;;2.80;;
26860;SDS011;37676;46.956;7.430;2022-07-23T13:28:24;3.92;;;2.38;;
26860;SDS011;37676;46.956;7.430;2022-07-23T13:30:50;3.65;;;2.55;;
26860;SDS011;37676;46.956;7.430;2022-07-23T13:33:17;5.35;;;3.92;;
26860;SDS011;37676;46.956;7.430;2022-07-23T13:35:47;4.97;;;3.72;;
26860;SDS011;37676;46.956;7.430;2022-07-23T13:38:13;4.82;;;3.55;;
26860;SDS011;37676;46.956;7.430;2022-07-23T13:40:40;3.88;;;2.45;;
26860;SDS011;37676;46.956;7.430;2022-07-23T13:43:08;3.60;;;2.67;;
26860;SDS011;37676;46.956;7.430;2022-07-23T13:45:34;4.07;;;3.00;;
26860;SDS011;37676;46.956;7.430;2022-07-23T13:48:00;4.05;;;2.67;;
26860;SDS011;37676;46.956;7.430;2022-07-23T13:50:26;3.67;;;2.70;;
26860;SDS011;37676;46.956;7.430;2022-07-23T13:52:52;4.30;;;2.85;;
26860;SDS011;37676;46.956;7.430;2022-07-23T13:55:17;3.92;;;2.65;;
26860;SDS011;37676;46.956;7.430;2022-07-23T13:57:43;3.80;;;2.58;;
26860;SDS011;37676;46.956;7.430;2022-07-23T14:00:09;3.33;;;2.20;;
26860;SDS011;37676;46.956;7.430;2022-07-23T14:02:38;3.70;;;2.60;;
26860;SDS011;37676;46.956;7.430;2022-07-23T14:05:05;3.30;;;2.08;;
26860;SDS011;37676;46.956;7.430;2022-07-23T14:07:32;3.38;;;2.10;;
26860;SDS011;37676;46.956;7.430;2022-07-23T14:09:58;3.15;;;1.92;;
26860;SDS011;37676;46.956;7.430;2022-07-23T14:12:24;3.58;;;2.17;;
26860;SDS011;37676;46.956;7.430;2022-07-23T14:14:50;3.45;;;2.00;;
26860;SDS011;37676;46.956;7.430;2022-07-23T14:17:15;3.35;;;2.42;;
26860;SDS011;37676;46.956;7.430;2022-07-23T14:19:41;3.43;;;2.13;;
26860;SDS011;37676;46.956;7.430;2022-07-23T14:22:06;3.08;;;1.92;;
26860;SDS011;37676;46.956;7.430;2022-07-23T14:24:32;2.92;;;1.88;;
26860;SDS011;37676;46.956;7.430;2022-07-23T14:26:59;3.10;;;2.20;;
26860;SDS011;37676;46.956;7.430;2022-07-23T14:29:25;3.65;;;2.25;;
26860;SDS011;37676;46.956;7.430;2022-07-23T14:31:50;3.65;;;2.60;;
26860;SDS011;37676;46.956;7.430;2022-07-23T14:34:16;3.13;;;2.15;;
26860;SDS011;37676;46.956;7.430;2022-07-23T14:36:42;2.92;;;1.98;;
26860;SDS011;37676;46.956;7.430;2022-07-23T14:39:08;3.75;;;2.72;;
26860;SDS011;37676;46.956;7.430;2022-07-23T14:41:33;3.17;;;2.13;;
26860;SDS011;37676;46.956;7.430;2022-07-23T14:43:59;2.58;;;1.80;;
26860;SDS011;37676;46.956;7.430;2022-07-23T14:46:25;3.50;;;2.38;;
26860;SDS011;37676;46.956;7.430;2022-07-23T14:48:51;3.53;;;2.33;;
26860;SDS011;37676;46.956;7.430;2022-07-23T14:51:17;3.53;;;2.50;;
26860;SDS011;37676;46.956;7.430;2022-07-23T14:53:42;3.55;;;2.50;;
26860;SDS011;37676;46.956;7.430;2022-07-23T14:56:07;3.13;;;2.20;;
26860;SDS011;37676;46.956;7.430;2022-07-23T14:58:33;5.30;;;3.60;;
26860;SDS011;37676;46.956;7.430;2022-07-23T15:00:58;5.22;;;3.05;;
26860;SDS011;37676;46.956;7.430;2022-07-23T15:03:24;4.00;;;2.70;;
26860;SDS011;37676;46.956;7.430;2022-07-23T15:05:49;4.10;;;3.20;;
26860;SDS011;37676;46.956;7.430;2022-07-23T15:08:15;4.20;;;3.15;;
26860;SDS011;37676;46.956;7.430;2022-07-23T15:10:40;4.13;;;2.92;;
26860;SDS011;37676;46.956;7.430;2022-07-23T15:13:06;3.47;;;2.60;;
26860;SDS011;37676;46.956;7.430;2022-07-23T15:15:31;4.40;;;3.05;;
26860;SDS011;37676;46.956;7.430;2022-07-23T15:17:56;3.60;;;2.47;;
26860;SDS011;37676;46.956;7.430;2022-07-23T15:20:22;3.53;;;2.67;;
26860;SDS011;37676;46.956;7.430;2022-07-23T15:22:47;3.45;;;2.50;;
26860;SDS011;37676;46.956;7.430;2022-07-23T15:25:13;5.22;;;3.63;;
26860;SDS011;37676;46.956;7.430;2022-07-23T15:27:38;3.70;;;2.80;;
26860;SDS011;37676;46.956;7.430;2022-07-23T15:30:04;3.28;;;2.47;;
26860;SDS011;37676;46.956;7.430;2022-07-23T15:32:30;3.80;;;2.00;;
26860;SDS011;37676;46.956;7.430;2022-07-23T15:34:56;3.65;;;2.05;;
26860;SDS011;37676;46.956;7.430;2022-07-23T15:37:21;3.38;;;1.95;;